createdAt,value
2022-11-07T00:00:37.697Z,99125.41
2022-11-07T00:03:04.651Z,99125.59
2022-11-07T00:05:31.401Z,99124.66
2022-11-07T00:07:57.927Z,99120.53
2022-11-07T00:10:24.505Z,99132.19
2022-11-07T00:12:51.050Z,99133.78
2022-11-07T00:15:17.570Z,99128.25
2022-11-07T00:17:44.221Z,99122.97
2022-11-07T00:20:11.174Z,99134.00
2022-11-07T00:22:37.698Z,99136.09
2022-11-07T00:25:04.593Z,99137.06
2022-11-07T00:27:31.238Z,99141.88
2022-11-07T00:29:57.817Z,99140.69
2022-11-07T00:32:24.398Z,99138.44
2022-11-07T00:34:50.954Z,99146.78
2022-11-07T00:37:17.469Z,99154.28
2022-11-07T00:39:44.191Z,99148.03
2022-11-07T00:42:10.697Z,99152.84
2022-11-07T00:44:37.273Z,99145.19
2022-11-07T00:47:03.926Z,99146.19
2022-11-07T00:49:30.511Z,99147.78
2022-11-07T00:51:57.066Z,99147.78
2022-11-07T00:54:23.790Z,99149.38
2022-11-07T00:56:50.314Z,99147.94
2022-11-07T00:59:16.890Z,99153.06
2022-11-07T01:01:43.648Z,99154.34
2022-11-07T01:04:32.971Z,99154.84
2022-11-07T01:06:59.795Z,99157.22
2022-11-07T01:09:26.380Z,99155.34
2022-11-07T01:11:53.203Z,99169.38
2022-11-07T01:14:21.874Z,99159.31
2022-11-07T01:16:49.134Z,99164.09
2022-11-07T01:19:16.477Z,99161.41
2022-11-07T01:21:43.636Z,99158.22
2022-11-07T01:24:12.433Z,99158.69
2022-11-07T01:26:40.404Z,99161.91
2022-11-07T01:29:07.228Z,99167.34
2022-11-07T01:31:34.073Z,99172.25
2022-11-07T01:34:01.245Z,99157.09
2022-11-07T01:36:28.257Z,99170.63
2022-11-07T01:38:54.948Z,99166.34
2022-11-07T01:41:25.655Z,99160.63
2022-11-07T01:44:24.269Z,99164.75
2022-11-07T01:46:55.011Z,99152.78
2022-11-07T01:49:28.266Z,99153.91
2022-11-07T01:51:57.655Z,99164.75
2022-11-07T01:54:28.173Z,99164.75
2022-11-07T01:56:58.496Z,99157.72
2022-11-07T01:59:29.987Z,99155.34
2022-11-07T02:01:56.771Z,99150.22
2022-11-07T02:04:27.580Z,99151.31
2022-11-07T02:07:13.212Z,99153.84
2022-11-07T02:09:40.922Z,99162.97
2022-11-07T02:12:07.802Z,99154.53
2022-11-07T02:14:34.328Z,99161.06
2022-11-07T02:17:01.517Z,99156.75
2022-11-07T02:19:40.619Z,99153.56
2022-11-07T02:22:19.125Z,99145.44
2022-11-07T02:24:50.777Z,99150.84
2022-11-07T02:27:21.016Z,99152.16
2022-11-07T02:29:52.109Z,99142.09
2022-11-07T02:32:18.678Z,99157.38
2022-11-07T02:34:45.272Z,99140.63
2022-11-07T02:37:22.472Z,99155.78
2022-11-07T02:39:49.916Z,99154.66
2022-11-07T02:42:17.190Z,99161.38
2022-11-07T02:44:43.797Z,99158.97
2022-11-07T02:47:10.669Z,99155.63
2022-11-07T02:49:37.167Z,99161.53
2022-11-07T02:52:03.979Z,99151.19
2022-11-07T02:54:30.486Z,99149.28
2022-11-07T02:56:57.009Z,99160.13
2022-11-07T02:59:26.974Z,99163.13
2022-11-07T03:01:54.162Z,99164.75
2022-11-07T03:04:20.825Z,99167.94
2022-11-07T03:06:47.362Z,99161.72
2022-11-07T03:09:14.049Z,99170.16
2022-11-07T03:11:40.576Z,99167.44
2022-11-07T03:14:07.087Z,99167.94
2022-11-07T03:16:33.659Z,99178.19
2022-11-07T03:19:00.216Z,99168.94
2022-11-07T03:21:26.759Z,99174.34
2022-11-07T03:23:53.340Z,99182.47
2022-11-07T03:26:20.986Z,99184.09
2022-11-07T03:28:47.485Z,99178.34
2022-11-07T03:31:14.001Z,99188.88
2022-11-07T03:33:40.525Z,99179.16
2022-11-07T03:36:07.352Z,99187.75
2022-11-07T03:38:33.880Z,99182.00
2022-11-07T03:41:00.405Z,99204.03
2022-11-07T03:43:26.933Z,99197.00
2022-11-07T03:45:53.426Z,99207.84
2022-11-07T03:48:19.961Z,99201.13
2022-11-07T03:50:46.527Z,99200.63
2022-11-07T03:53:13.401Z,99201.25
2022-11-07T03:55:42.297Z,99198.84
2022-11-07T03:58:08.930Z,99201.06
2022-11-07T04:00:35.515Z,99210.31
2022-11-07T04:03:04.427Z,99206.00
2022-11-07T04:05:31.112Z,99197.88
2022-11-07T04:07:57.935Z,99200.09
2022-11-07T04:10:24.408Z,99194.19
2022-11-07T04:13:09.325Z,99185.59
2022-11-07T04:15:57.187Z,99191.78
2022-11-07T04:18:23.844Z,99193.72
2022-11-07T04:20:50.347Z,99199.91
2022-11-07T04:23:17.203Z,99201.50
2022-11-07T04:26:02.566Z,99203.44
2022-11-07T04:28:29.096Z,99206.16
2022-11-07T04:30:55.805Z,99211.56
2022-11-07T04:33:22.393Z,99208.53
2022-11-07T04:35:48.890Z,99216.97
2022-11-07T04:38:15.571Z,99212.66
2022-11-07T04:40:42.064Z,99222.41
2022-11-07T04:43:09.639Z,99210.94
2022-11-07T04:45:39.361Z,99224.97
2022-11-07T04:48:06.277Z,99215.44
2022-11-07T04:50:32.821Z,99218.94
2022-11-07T04:52:59.349Z,99216.72
2022-11-07T04:55:27.832Z,99219.41
2022-11-07T04:57:54.326Z,99220.84
2022-11-07T05:00:21.318Z,99217.34
2022-11-07T05:02:48.436Z,99219.56
2022-11-07T05:05:15.881Z,99218.44
2022-11-07T05:07:43.071Z,99230.41
2022-11-07T05:10:17.632Z,99221.00
2022-11-07T05:12:44.166Z,99224.50
2022-11-07T05:15:10.939Z,99220.66
2022-11-07T05:17:37.501Z,99224.97
2022-11-07T05:20:04.381Z,99229.59
2022-11-07T05:22:55.134Z,99226.09
2022-11-07T05:25:22.730Z,99210.94
2022-11-07T05:27:49.230Z,99205.53
2022-11-07T05:30:15.801Z,99216.16
2022-11-07T05:32:42.356Z,99219.50
2022-11-07T05:35:09.324Z,99222.06
2022-11-07T05:37:35.971Z,99219.94
2022-11-07T05:40:02.520Z,99227.91
2022-11-07T05:42:29.033Z,99224.50
2022-11-07T05:44:55.600Z,99220.69
2022-11-07T05:47:22.102Z,99209.84
2022-11-07T05:49:48.616Z,99214.16
2022-11-07T05:52:15.241Z,99213.88
2022-11-07T05:54:41.773Z,99207.63
2022-11-07T05:57:08.316Z,99209.22
2022-11-07T05:59:34.925Z,99217.22
2022-11-07T06:13:17.761Z,99213.28
2022-11-07T06:16:14.632Z,99206.91
2022-11-07T06:18:41.907Z,99222.06
2022-11-07T06:21:08.619Z,99220.00
2022-11-07T06:23:35.144Z,99216.34
2022-11-07T06:26:02.210Z,99214.94
2022-11-07T06:28:28.724Z,99215.13
2022-11-07T06:31:00.072Z,99225.31
2022-11-07T06:33:26.823Z,99221.69
2022-11-07T06:35:53.343Z,99220.63
2022-11-07T06:38:20.115Z,99215.88
2022-11-07T06:40:46.679Z,99213.94
2022-11-07T06:43:16.455Z,99221.59
2022-11-07T06:45:45.047Z,99222.22
2022-11-07T06:48:12.298Z,99226.97
2022-11-07T06:50:39.124Z,99231.13
2022-11-07T06:53:12.025Z,99237.16
2022-11-07T06:55:39.299Z,99226.97
2022-11-07T06:58:06.199Z,99231.38
2022-11-07T07:00:34.508Z,99236.78
2022-11-07T07:03:01.358Z,99231.38
2022-11-07T07:05:28.100Z,99231.38
2022-11-07T07:07:55.699Z,99238.88
2022-11-07T07:10:22.525Z,99241.91
2022-11-07T07:12:49.080Z,99244.13
2022-11-07T07:15:15.593Z,99248.13
2022-11-07T07:17:42.118Z,99252.41
2022-11-07T07:20:09.603Z,99256.44
2022-11-07T07:22:36.259Z,99258.84
2022-11-07T07:25:02.779Z,99263.66
2022-11-07T07:27:29.273Z,99258.38
2022-11-07T07:29:55.812Z,99271.00
2022-11-07T07:32:25.132Z,99265.78
2022-11-07T07:34:52.244Z,99258.94
2022-11-07T07:37:19.354Z,99257.22
2022-11-07T07:39:45.930Z,99259.16
2022-11-07T07:42:12.452Z,99263.97
2022-11-07T07:44:39.032Z,99271.59
2022-11-07T07:47:10.900Z,99267.28
2022-11-07T07:49:38.055Z,99271.75
2022-11-07T07:52:05.031Z,99291.84
2022-11-07T07:54:31.671Z,99271.56
2022-11-07T07:56:58.239Z,99289.75
2022-11-07T07:59:24.858Z,99288.16
2022-11-07T08:01:56.477Z,99284.00
2022-11-07T08:04:23.639Z,99280.19
2022-11-07T08:06:50.195Z,99284.19
2022-11-07T08:09:16.685Z,99285.31
2022-11-07T08:11:43.208Z,99293.44
2022-11-07T08:14:11.568Z,99295.53
2022-11-07T08:16:38.137Z,99285.97
2022-11-07T08:19:04.777Z,99276.88
2022-11-07T08:21:31.364Z,99276.44
2022-11-07T08:23:57.949Z,99281.72
2022-11-07T08:26:24.511Z,99280.31
2022-11-07T08:28:53.921Z,99286.22
2022-11-07T08:31:20.649Z,99284.81
2022-11-07T08:33:47.261Z,99292.81
2022-11-07T08:36:13.902Z,99290.88
2022-11-07T08:38:40.436Z,99288.97
2022-11-07T08:41:07.066Z,99292.97
2022-11-07T08:43:33.696Z,99291.53
2022-11-07T08:46:00.376Z,99300.34
2022-11-07T08:48:26.913Z,99294.16
2022-11-07T08:50:55.723Z,99291.31
2022-11-07T08:53:23.698Z,99298.69
2022-11-07T08:55:50.452Z,99289.28
2022-11-07T08:58:17.546Z,99290.75
2022-11-07T09:00:44.221Z,99288.97
2022-11-07T09:05:58.678Z,99297.00
2022-11-07T09:08:25.515Z,99299.09
2022-11-07T09:10:52.068Z,99302.47
2022-11-07T09:13:20.763Z,99308.50
2022-11-07T09:15:51.061Z,99305.50
2022-11-07T09:18:19.424Z,99309.50
2022-11-07T09:20:46.004Z,99290.66
2022-11-07T09:23:12.543Z,99298.00
2022-11-07T09:25:39.093Z,99296.41
2022-11-07T09:28:05.879Z,99293.22
2022-11-07T09:30:32.931Z,99298.00
2022-11-07T09:33:00.052Z,99293.38
2022-11-07T09:35:27.241Z,99293.38
2022-11-07T09:37:54.057Z,99293.56
2022-11-07T09:40:40.738Z,99299.59
2022-11-07T09:43:07.338Z,99303.63
2022-11-07T09:45:51.658Z,99296.88
2022-11-07T09:48:24.446Z,99298.50
2022-11-07T09:50:51.739Z,99303.44
2022-11-07T09:53:27.172Z,99298.31
2022-11-07T09:55:57.788Z,99301.38
2022-11-07T09:58:31.432Z,99303.44
2022-11-07T10:01:02.922Z,99319.28
2022-11-07T10:03:30.188Z,99322.31
2022-11-07T10:06:34.258Z,99315.28
2022-11-07T10:09:11.312Z,99320.41
2022-11-07T10:11:53.439Z,99312.91
2022-11-07T10:14:49.192Z,99316.59
2022-11-07T10:17:42.570Z,99310.03
2022-11-07T10:20:35.307Z,99315.91
2022-11-07T10:23:17.860Z,99310.31
2022-11-07T10:25:52.971Z,99327.41
2022-11-07T10:28:20.774Z,99312.19
2022-11-07T10:30:52.887Z,99330.59
2022-11-07T10:33:51.927Z,99325.34
2022-11-07T10:36:32.543Z,99326.94
2022-11-07T10:39:01.711Z,99322.97
2022-11-07T10:41:31.235Z,99318.78
2022-11-07T10:44:04.971Z,99312.09
2022-11-07T10:46:41.915Z,99328.06
2022-11-07T10:49:23.306Z,99327.75
2022-11-07T10:51:50.763Z,99330.31
2022-11-07T10:54:35.858Z,99321.50
2022-11-07T10:57:15.554Z,99329.19
2022-11-07T10:59:59.223Z,99318.47
2022-11-07T11:02:30.198Z,99321.66
2022-11-07T11:04:59.525Z,99317.81
2022-11-07T11:07:37.072Z,99319.41
2022-11-07T11:10:17.217Z,99325.03
2022-11-07T11:12:47.016Z,99320.84
2022-11-07T11:15:15.016Z,99317.94
2022-11-07T11:17:42.072Z,99306.25
2022-11-07T11:20:26.634Z,99313.59
2022-11-07T11:22:53.922Z,99320.28
2022-11-07T11:25:21.980Z,99318.03
2022-11-07T11:28:10.072Z,99318.06
2022-11-07T11:30:37.128Z,99317.09
2022-11-07T11:33:13.821Z,99303.31
2022-11-07T11:35:46.953Z,99298.41
2022-11-07T11:38:22.863Z,99309.63
2022-11-07T11:41:03.371Z,99303.97
2022-11-07T11:43:59.031Z,99296.13
2022-11-07T11:46:38.570Z,99286.34
2022-11-07T11:49:32.405Z,99291.44
2022-11-07T11:52:24.086Z,99297.47
2022-11-07T11:54:52.780Z,99291.59
2022-11-07T11:57:38.120Z,99302.84
2022-11-07T12:00:23.044Z,99298.84
2022-11-07T12:03:00.465Z,99301.72
2022-11-07T12:05:40.877Z,99294.53
2022-11-07T12:08:32.440Z,99290.22
2022-11-07T12:10:59.939Z,99292.47
2022-11-07T12:13:42.578Z,99283.31
2022-11-07T12:16:09.550Z,99279.94
2022-11-07T12:18:54.896Z,99282.50
2022-11-07T12:21:48.634Z,99283.44
2022-11-07T12:24:37.255Z,99291.78
2022-11-07T12:27:28.137Z,99279.47
2022-11-07T12:30:05.747Z,99276.94
2022-11-07T12:32:38.120Z,99281.91
2022-11-07T12:35:26.444Z,99267.66
2022-11-07T12:37:59.019Z,99270.16
2022-11-07T12:40:43.907Z,99269.50
2022-11-07T12:43:18.741Z,99254.94
2022-11-07T12:46:00.971Z,99258.91
2022-11-07T12:48:39.698Z,99266.94
2022-11-07T12:51:15.468Z,99267.38
2022-11-07T12:54:16.225Z,99274.28
2022-11-07T12:56:45.291Z,99259.22
2022-11-07T12:59:21.026Z,99261.47
2022-11-07T13:02:06.534Z,99264.97
2022-11-07T13:04:38.905Z,99261.47
2022-11-07T13:07:44.035Z,99259.38
2022-11-07T13:10:10.480Z,99264.50
2022-11-07T13:13:01.680Z,99252.50
2022-11-07T13:15:31.870Z,99258.56
2022-11-07T13:18:24.999Z,99261.75
2022-11-07T13:21:02.861Z,99251.16
2022-11-07T13:23:30.251Z,99255.81
2022-11-07T13:26:25.946Z,99252.59
2022-11-07T13:28:57.845Z,99241.94
2022-11-07T13:31:40.443Z,99251.25
2022-11-07T13:34:26.715Z,99252.69
2022-11-07T13:37:01.111Z,99256.91
2022-11-07T13:39:30.410Z,99255.63
2022-11-07T13:41:59.530Z,99250.66
2022-11-07T13:44:34.828Z,99241.94
2022-11-07T13:47:05.283Z,99254.38
2022-11-07T13:49:44.763Z,99244.16
2022-11-07T13:52:19.507Z,99249.25
2022-11-07T13:55:05.796Z,99246.53
2022-11-07T13:57:40.340Z,99254.84
2022-11-07T14:00:10.980Z,99251.91
2022-11-07T14:02:37.725Z,99246.47
2022-11-07T14:05:17.687Z,99249.84
2022-11-07T14:08:16.872Z,99251.19
2022-11-07T14:10:48.838Z,99242.22
2022-11-07T14:13:41.336Z,99242.88
2022-11-07T14:16:17.610Z,99247.72
2022-11-07T14:18:56.759Z,99245.19
2022-11-07T14:21:27.279Z,99244.25
2022-11-07T14:23:54.041Z,99254.22
2022-11-07T14:26:30.672Z,99245.13
2022-11-07T14:28:57.969Z,99250.75
2022-11-07T14:31:34.272Z,99252.53
2022-11-07T14:34:03.742Z,99255.63
2022-11-07T14:36:31.313Z,99259.13
2022-11-07T14:39:05.185Z,99267.91
2022-11-07T14:41:32.093Z,99275.16
2022-11-07T14:44:03.891Z,99269.09
2022-11-07T14:46:30.914Z,99265.09
2022-11-07T14:48:57.824Z,99275.03
2022-11-07T14:51:27.832Z,99269.13
2022-11-07T14:54:04.372Z,99268.66
2022-11-07T14:56:37.706Z,99271.56
2022-11-07T14:59:04.806Z,99267.72
2022-11-07T15:01:34.227Z,99266.13
2022-11-07T15:04:05.536Z,99270.44
2022-11-07T15:06:34.714Z,99275.41
2022-11-07T15:09:05.539Z,99268.38
2022-11-07T15:11:35.172Z,99272.22
2022-11-07T15:14:04.121Z,99271.41
2022-11-07T15:16:38.067Z,99274.00
2022-11-07T15:19:08.856Z,99273.19
2022-11-07T15:21:38.608Z,99268.88
2022-11-07T15:24:47.403Z,99269.38
2022-11-07T15:27:13.878Z,99266.34
2022-11-07T15:29:53.644Z,99267.00
2022-11-07T15:32:22.896Z,99268.91
2022-11-07T15:37:38.629Z,99264.94
2022-11-07T15:40:31.492Z,99272.00
2022-11-07T15:42:58.298Z,99259.53
2022-11-07T15:45:25.103Z,99261.78
2022-11-07T15:47:51.934Z,99270.09
2022-11-07T15:50:24.851Z,99267.25
2022-11-07T15:52:52.889Z,99275.09
2022-11-07T15:55:21.787Z,99270.63
2022-11-07T15:57:51.646Z,99272.38
2022-11-07T16:00:20.843Z,99273.84
2022-11-07T16:02:47.973Z,99273.69
2022-11-07T16:05:15.258Z,99278.34
2022-11-07T16:07:43.420Z,99270.84
2022-11-07T16:10:26.798Z,99271.31
2022-11-07T16:12:54.089Z,99263.63
2022-11-07T16:15:23.654Z,99274.03
2022-11-07T16:17:50.513Z,99266.34
2022-11-07T16:20:20.430Z,99281.84
2022-11-07T16:22:48.200Z,99284.25
2022-11-07T16:25:21.381Z,99274.50
2022-11-07T16:27:59.127Z,99267.78
2022-11-07T16:30:27.306Z,99279.47
2022-11-07T16:32:53.819Z,99277.06
2022-11-07T16:35:20.368Z,99282.38
2022-11-07T16:37:47.081Z,99279.16
2022-11-07T16:40:17.879Z,99278.16
2022-11-07T16:42:45.036Z,99288.09
2022-11-07T16:45:17.113Z,99278.66
2022-11-07T16:47:44.143Z,99279.81
2022-11-07T16:50:16.838Z,99274.38
2022-11-07T16:52:43.516Z,99282.34
2022-11-07T16:55:19.796Z,99284.91
2022-11-07T16:57:46.984Z,99284.59
2022-11-07T17:00:18.832Z,99282.19
2022-11-07T17:02:45.493Z,99282.53
2022-11-07T17:05:12.794Z,99282.53
2022-11-07T17:07:39.313Z,99283.63
2022-11-07T17:10:06.517Z,99286.19
2022-11-07T17:12:33.447Z,99296.09
2022-11-07T17:15:00.044Z,99287.78
2022-11-07T17:17:26.539Z,99300.09
2022-11-07T17:19:53.055Z,99298.81
2022-11-07T17:22:20.010Z,99298.63
2022-11-07T17:24:47.275Z,99298.16
2022-11-07T17:27:22.772Z,99295.31
2022-11-07T17:29:50.278Z,99296.91
2022-11-07T17:32:17.162Z,99301.53
2022-11-07T17:34:44.130Z,99301.53
2022-11-07T17:37:16.490Z,99294.50
2022-11-07T17:39:45.992Z,99293.53
2022-11-07T17:42:12.957Z,99290.63
2022-11-07T17:44:40.080Z,99287.13
2022-11-07T17:47:07.026Z,99288.25
2022-11-07T17:49:33.655Z,99291.28
2022-11-07T17:52:00.189Z,99295.41
2022-11-07T17:54:29.449Z,99289.03
2022-11-07T17:56:56.397Z,99288.53
2022-11-07T17:59:23.398Z,99305.97
2022-11-07T18:01:50.073Z,99304.34
2022-11-07T18:04:16.734Z,99304.34
2022-11-07T18:06:43.457Z,99302.75
2022-11-07T18:09:14.314Z,99305.78
2022-11-07T18:11:40.882Z,99297.16
2022-11-07T18:14:07.813Z,99299.88
2022-11-07T18:16:36.110Z,99295.56
2022-11-07T18:19:04.331Z,99300.97
2022-11-07T18:21:31.264Z,99293.31
2022-11-07T18:23:58.172Z,99300.34
2022-11-07T18:26:30.907Z,99297.31
2022-11-07T18:29:02.108Z,99293.81
2022-11-07T18:31:28.644Z,99293.50
2022-11-07T18:34:00.420Z,99290.16
2022-11-07T18:36:28.219Z,99287.44
2022-11-07T18:38:54.741Z,99283.94
2022-11-07T18:41:22.983Z,99285.84
2022-11-07T18:43:50.176Z,99295.56
2022-11-07T18:46:19.323Z,99289.03
2022-11-07T18:48:46.673Z,99298.28
2022-11-07T18:51:19.213Z,99293.50
2022-11-07T18:53:46.028Z,99301.81
2022-11-07T18:56:13.732Z,99295.41
2022-11-07T18:58:42.465Z,99296.66
2022-11-07T19:01:21.830Z,99301.75
2022-11-07T19:03:48.732Z,99297.41
2022-11-07T19:06:18.150Z,99297.22
2022-11-07T19:08:47.756Z,99299.28
2022-11-07T19:11:17.757Z,99290.47
2022-11-07T19:13:47.906Z,99289.31
2022-11-07T19:16:16.932Z,99299.00
2022-11-07T19:18:49.085Z,99306.19
2022-11-07T19:21:20.491Z,99292.28
2022-11-07T19:23:48.396Z,99292.91
2022-11-07T19:26:15.963Z,99300.56
2022-11-07T19:28:42.511Z,99296.72
2022-11-07T19:31:12.974Z,99296.72
2022-11-07T19:33:41.431Z,99287.47
2022-11-07T19:36:13.177Z,99302.16
2022-11-07T19:38:39.741Z,99292.72
2022-11-07T19:41:07.682Z,99294.13
2022-11-07T19:43:34.825Z,99289.03
2022-11-07T19:46:07.093Z,99301.00
2022-11-07T19:48:33.749Z,99294.28
2022-11-07T19:51:03.713Z,99295.19
2022-11-07T19:53:30.233Z,99299.16
2022-11-07T19:55:56.801Z,99300.88
2022-11-07T19:58:23.476Z,99298.63
2022-11-07T20:00:50.004Z,99293.31
2022-11-07T20:03:16.983Z,99300.00
2022-11-07T20:05:43.936Z,99304.44
2022-11-07T20:08:10.491Z,99291.59
2022-11-07T20:10:37.014Z,99294.44
2022-11-07T20:13:03.520Z,99295.69
2022-11-07T20:15:30.030Z,99295.50
2022-11-07T20:17:56.569Z,99282.97
2022-11-07T20:20:23.086Z,99290.41
2022-11-07T20:22:49.673Z,99294.56
2022-11-07T20:25:16.426Z,99295.44
2022-11-07T20:27:42.962Z,99290.31
2022-11-07T20:30:10.333Z,99282.94
2022-11-07T20:32:37.048Z,99287.75
2022-11-07T20:35:04.108Z,99286.09
2022-11-07T20:37:31.005Z,99291.25
2022-11-07T20:39:57.638Z,99282.22
2022-11-07T20:42:24.177Z,99280.53
2022-11-07T20:44:51.207Z,99277.22
2022-11-07T20:47:18.020Z,99272.03
2022-11-07T20:49:44.663Z,99279.75
2022-11-07T20:52:11.334Z,99266.31
2022-11-07T20:54:39.409Z,99273.41
2022-11-07T20:57:06.076Z,99272.72
2022-11-07T20:59:33.076Z,99275.84
2022-11-07T21:02:03.387Z,99277.53
2022-11-07T21:04:49.578Z,99274.41
2022-11-07T21:07:19.709Z,99279.41
2022-11-07T21:09:46.929Z,99272.50
2022-11-07T21:12:14.359Z,99274.97
2022-11-07T21:14:42.386Z,99274.75
2022-11-07T21:17:09.731Z,99278.03
2022-11-07T21:19:36.432Z,99278.13
2022-11-07T21:22:04.166Z,99266.84
2022-11-07T21:24:31.488Z,99271.72
2022-11-07T21:26:58.086Z,99276.91
2022-11-07T21:29:29.280Z,99273.44
2022-11-07T21:31:56.802Z,99271.81
2022-11-07T21:34:23.393Z,99273.44
2022-11-07T21:36:49.888Z,99259.38
2022-11-07T21:39:17.470Z,99264.28
2022-11-07T21:41:44.099Z,99261.69
2022-11-07T21:44:12.343Z,99260.69
2022-11-07T21:46:38.924Z,99261.88
2022-11-07T21:49:06.275Z,99252.75
2022-11-07T21:51:34.698Z,99255.44
2022-11-07T21:54:02.921Z,99250.56
2022-11-07T21:56:40.049Z,99244.66
2022-11-07T21:59:10.919Z,99245.44
2022-11-07T22:01:39.742Z,99242.75
2022-11-07T22:04:10.886Z,99228.44
2022-11-07T22:06:44.209Z,99223.06
2022-11-07T22:09:14.447Z,99213.03
2022-11-07T22:11:41.205Z,99210.94
2022-11-07T22:14:07.857Z,99218.72
2022-11-07T22:16:34.651Z,99212.75
2022-11-07T22:19:01.591Z,99214.25
2022-11-07T22:21:28.459Z,99220.56
2022-11-07T22:23:55.714Z,99208.00
2022-11-07T22:26:25.213Z,99206.78
2022-11-07T22:28:51.940Z,99206.09
2022-11-07T22:31:23.054Z,99203.34
2022-11-07T22:33:50.981Z,99201.94
2022-11-07T22:36:18.068Z,99191.94
2022-11-07T22:38:44.806Z,99194.94
2022-11-07T22:41:17.208Z,99180.66
2022-11-07T22:43:43.991Z,99180.50
2022-11-07T22:46:16.885Z,99183.88
2022-11-07T22:48:45.223Z,99180.75
2022-11-07T22:51:14.613Z,99176.06
2022-11-07T22:53:41.508Z,99178.66
2022-11-07T22:56:18.956Z,99171.31
2022-11-07T22:58:47.118Z,99168.22
2022-11-07T23:01:19.857Z,99167.78
2022-11-07T23:03:47.301Z,99164.66
2022-11-07T23:06:14.788Z,99161.56
2022-11-07T23:08:41.493Z,99164.34
2022-11-07T23:11:44.888Z,99159.31
2022-11-07T23:14:03.977Z,99152.09
2022-11-07T23:16:36.214Z,99155.09
2022-11-07T23:19:05.797Z,99159.19
2022-11-07T23:21:33.121Z,99158.66
2022-11-07T23:24:00.358Z,99153.00
2022-11-07T23:26:33.848Z,99151.59
2022-11-07T23:29:22.938Z,99145.47
2022-11-07T23:31:50.979Z,99150.56
2022-11-07T23:34:19.390Z,99146.50
2022-11-07T23:36:46.329Z,99140.59
2022-11-07T23:39:18.598Z,99143.66
2022-11-07T23:41:46.004Z,99136.16
2022-11-07T23:44:13.527Z,99133.53
2022-11-07T23:46:59.816Z,99136.81
2022-11-07T23:49:44.699Z,99135.53
2022-11-07T23:52:11.938Z,99129.63
2022-11-07T23:54:57.097Z,99124.22
2022-11-07T23:57:23.611Z,99121.59
